createdAt,value
2023-05-18T00:02:01.440Z,81.14
2023-05-18T00:04:29.591Z,81.63
2023-05-18T00:07:03.187Z,82.84
2023-05-18T00:09:31.341Z,83.23
2023-05-18T00:11:58.814Z,83.28
2023-05-18T00:14:25.774Z,84.30
2023-05-18T00:16:53.855Z,85.39
2023-05-18T00:19:21.187Z,86.26
2023-05-18T00:21:48.414Z,87.51
2023-05-18T00:24:15.854Z,87.97
2023-05-18T00:26:43.941Z,87.88
2023-05-18T00:29:10.493Z,88.23
2023-05-18T00:31:38.615Z,88.51
2023-05-18T00:34:09.382Z,88.80
2023-05-18T00:36:36.406Z,88.90
2023-05-18T00:39:04.424Z,88.65
2023-05-18T00:41:30.863Z,88.88
2023-05-18T00:43:57.669Z,88.51
2023-05-18T00:46:25.171Z,88.37
2023-05-18T00:48:52.815Z,88.26
2023-05-18T00:51:20.627Z,87.83
2023-05-18T00:53:47.282Z,87.00
2023-05-18T00:56:15.245Z,86.65
2023-05-18T00:58:42.485Z,86.08
2023-05-18T01:01:12.262Z,85.96
2023-05-18T01:03:39.838Z,86.55
2023-05-18T01:06:08.154Z,87.04
2023-05-18T01:08:35.598Z,87.18
2023-05-18T01:11:16.624Z,86.50
2023-05-18T01:13:56.543Z,86.09
2023-05-18T01:16:27.059Z,85.98
2023-05-18T01:19:01.063Z,85.99
2023-05-18T01:21:46.321Z,86.40
2023-05-18T01:24:36.329Z,86.17
2023-05-18T01:27:03.796Z,86.56
2023-05-18T01:29:31.012Z,86.81
2023-05-18T01:31:58.097Z,87.30
2023-05-18T01:34:24.568Z,87.44
2023-05-18T01:36:51.017Z,87.47
2023-05-18T01:39:17.744Z,87.20
2023-05-18T01:42:07.366Z,87.91
2023-05-18T01:44:40.338Z,88.25
2023-05-18T01:47:17.140Z,88.00
2023-05-18T01:50:01.903Z,90.02
2023-05-18T01:52:38.067Z,90.52
2023-05-18T01:55:05.581Z,91.04
2023-05-18T01:57:33.162Z,90.60
2023-05-18T02:00:00.072Z,90.67
2023-05-18T02:02:27.429Z,90.11
2023-05-18T02:04:54.273Z,89.70
2023-05-18T02:07:20.712Z,90.02
2023-05-18T02:09:47.179Z,90.08
2023-05-18T02:12:13.777Z,90.04
2023-05-18T02:14:40.427Z,91.31
2023-05-18T02:17:07.204Z,92.52
2023-05-18T02:19:37.941Z,93.12
2023-05-18T02:22:06.839Z,93.84
2023-05-18T02:24:33.768Z,94.51
2023-05-18T02:27:01.323Z,95.90
2023-05-18T02:29:27.750Z,96.15
2023-05-18T02:31:54.470Z,96.18
2023-05-18T02:34:22.753Z,95.92
2023-05-18T02:36:49.364Z,95.27
2023-05-18T02:39:16.115Z,95.18
2023-05-18T02:41:42.548Z,95.84
2023-05-18T02:44:09.003Z,97.00
2023-05-18T02:46:35.456Z,96.36
2023-05-18T02:49:01.922Z,96.09
2023-05-18T02:51:28.412Z,96.00
2023-05-18T02:53:54.875Z,96.55
2023-05-18T02:56:21.301Z,96.58
2023-05-18T02:58:47.828Z,96.07
2023-05-18T03:01:14.391Z,95.88
2023-05-18T03:03:42.278Z,96.24
2023-05-18T03:06:09.626Z,96.32
2023-05-18T03:08:37.182Z,96.50
2023-05-18T03:11:04.092Z,95.58
2023-05-18T03:13:30.506Z,95.77
2023-05-18T03:15:57.584Z,95.95
2023-05-18T03:18:25.281Z,96.47
2023-05-18T03:20:52.617Z,96.38
2023-05-18T03:23:20.041Z,97.29
2023-05-18T03:25:46.487Z,97.30
2023-05-18T03:28:12.899Z,98.79
2023-05-18T03:30:39.321Z,99.87
2023-05-18T03:33:05.822Z,99.24
2023-05-18T03:35:32.797Z,99.36
2023-05-18T03:37:59.469Z,98.78
2023-05-18T03:40:25.917Z,98.88
2023-05-18T03:42:52.351Z,99.88
2023-05-18T03:45:18.877Z,100.00
2023-05-18T03:47:45.468Z,100.00
2023-05-18T03:50:12.112Z,100.00
2023-05-18T03:52:39.514Z,100.00
2023-05-18T03:55:06.552Z,100.00
2023-05-18T03:57:33.179Z,100.00
2023-05-18T03:59:59.635Z,100.00
2023-05-18T04:02:26.457Z,100.00
2023-05-18T04:04:53.942Z,100.00
2023-05-18T04:07:24.226Z,99.63
2023-05-18T04:09:55.252Z,99.78
2023-05-18T04:12:21.667Z,100.00
2023-05-18T04:14:50.919Z,99.55
2023-05-18T04:17:22.025Z,99.29
2023-05-18T04:19:49.602Z,100.00
2023-05-18T04:22:16.612Z,100.00
2023-05-18T04:24:45.608Z,100.00
2023-05-18T04:27:12.330Z,100.00
2023-05-18T04:29:39.227Z,100.00
2023-05-18T04:32:10.580Z,100.00
2023-05-18T04:34:37.472Z,100.00
2023-05-18T04:37:07.938Z,100.00
2023-05-18T04:39:35.036Z,100.00
2023-05-18T04:42:01.744Z,100.00
2023-05-18T04:44:28.689Z,100.00
2023-05-18T04:46:55.279Z,100.00
2023-05-18T04:49:22.555Z,100.00
2023-05-18T04:51:50.159Z,100.00
2023-05-18T04:54:16.599Z,100.00
2023-05-18T04:56:43.013Z,100.00
2023-05-18T04:59:10.684Z,100.00
2023-05-18T05:01:37.299Z,100.00
2023-05-18T05:04:06.156Z,100.00
2023-05-18T05:06:32.590Z,100.00
2023-05-18T05:08:59.097Z,100.00
2023-05-18T05:11:25.674Z,100.00
2023-05-18T05:13:52.692Z,100.00
2023-05-18T05:16:19.148Z,100.00
2023-05-18T05:18:47.284Z,100.00
2023-05-18T05:21:13.971Z,100.00
2023-05-18T05:23:41.271Z,100.00
2023-05-18T05:26:07.739Z,100.00
2023-05-18T05:28:34.204Z,99.89
2023-05-18T05:31:00.711Z,100.00
2023-05-18T05:33:27.250Z,99.65
2023-05-18T05:35:53.776Z,100.00
2023-05-18T05:38:20.314Z,98.71
2023-05-18T05:40:46.775Z,99.67
2023-05-18T05:43:13.202Z,98.26
2023-05-18T05:45:39.692Z,97.89
2023-05-18T05:48:06.378Z,97.41
2023-05-18T05:50:32.836Z,97.89
2023-05-18T05:52:59.947Z,96.80
2023-05-18T05:55:26.443Z,96.02
2023-05-18T05:57:53.071Z,96.11
2023-05-18T06:00:20.069Z,95.22
2023-05-18T06:02:46.611Z,94.01
2023-05-18T06:05:13.063Z,94.84
2023-05-18T06:07:39.504Z,93.54
2023-05-18T06:10:06.424Z,94.05
2023-05-18T06:12:32.852Z,93.45
2023-05-18T06:14:59.354Z,92.85
2023-05-18T06:17:26.570Z,91.53
2023-05-18T06:19:53.956Z,91.99
2023-05-18T06:22:20.551Z,91.49
2023-05-18T06:24:47.204Z,90.30
2023-05-18T06:27:13.612Z,89.96
2023-05-18T06:29:46.650Z,89.80
2023-05-18T06:32:13.477Z,89.09
2023-05-18T06:34:40.006Z,87.60
2023-05-18T06:37:06.586Z,86.99
2023-05-18T06:39:32.997Z,86.66
2023-05-18T06:41:59.434Z,86.65
2023-05-18T06:44:26.406Z,86.15
2023-05-18T06:46:52.836Z,85.34
2023-05-18T06:49:19.245Z,84.75
2023-05-18T06:51:45.878Z,83.99
2023-05-18T06:54:12.947Z,84.54
2023-05-18T06:56:39.406Z,83.06
2023-05-18T06:59:05.918Z,83.10
2023-05-18T07:01:33.650Z,83.89
2023-05-18T07:04:00.282Z,82.21
2023-05-18T07:06:26.792Z,82.89
2023-05-18T07:08:53.235Z,81.25
2023-05-18T07:11:19.790Z,78.05
2023-05-18T07:13:46.267Z,75.96
2023-05-18T07:16:12.748Z,76.84
2023-05-18T07:18:39.336Z,77.14
2023-05-18T07:21:05.902Z,78.02
2023-05-18T07:23:32.623Z,78.45
2023-05-18T07:25:59.089Z,77.70
2023-05-18T07:28:25.719Z,77.92
2023-05-18T07:30:52.200Z,77.03
2023-05-18T07:33:18.678Z,77.07
2023-05-18T07:35:45.220Z,75.50
2023-05-18T07:38:11.630Z,74.10
2023-05-18T07:40:38.209Z,73.44
2023-05-18T07:43:04.615Z,72.20
2023-05-18T07:45:31.795Z,71.39
2023-05-18T07:47:58.580Z,73.00
2023-05-18T07:50:25.117Z,71.96
2023-05-18T07:52:51.586Z,70.34
2023-05-18T07:55:18.679Z,70.31
2023-05-18T07:57:45.117Z,71.49
2023-05-18T08:00:12.139Z,71.71
2023-05-18T08:02:38.707Z,70.66
2023-05-18T08:05:05.592Z,71.06
2023-05-18T08:07:32.804Z,70.41
2023-05-18T08:09:59.239Z,68.32
2023-05-18T08:12:25.725Z,67.75
2023-05-18T08:14:52.177Z,68.78
2023-05-18T08:17:19.629Z,70.01
2023-05-18T08:19:47.402Z,70.95
2023-05-18T08:22:14.890Z,69.90
2023-05-18T08:24:41.352Z,69.39
2023-05-18T08:27:09.843Z,69.46
2023-05-18T08:29:36.271Z,68.93
2023-05-18T08:32:02.856Z,69.71
2023-05-18T08:34:30.095Z,69.05
2023-05-18T08:36:56.569Z,69.09
2023-05-18T08:39:23.353Z,68.13
2023-05-18T08:42:18.881Z,70.02
2023-05-18T08:44:46.154Z,69.21
2023-05-18T08:47:15.296Z,68.20
2023-05-18T08:49:44.863Z,66.61
2023-05-18T08:52:16.187Z,66.75
2023-05-18T08:54:42.710Z,67.03
2023-05-18T08:57:09.648Z,66.72
2023-05-18T08:59:41.007Z,67.78
2023-05-18T09:02:08.026Z,65.99
2023-05-18T09:04:35.099Z,66.65
2023-05-18T09:07:03.658Z,66.77
2023-05-18T09:09:31.003Z,65.23
2023-05-18T09:11:57.713Z,65.25
2023-05-18T09:14:25.951Z,65.84
2023-05-18T09:16:53.260Z,65.98
2023-05-18T09:19:20.063Z,66.25
2023-05-18T09:21:46.935Z,66.25
2023-05-18T09:24:13.884Z,65.54
2023-05-18T09:26:40.624Z,65.16
2023-05-18T09:29:17.475Z,64.99
2023-05-18T09:31:45.856Z,64.92
2023-05-18T09:34:13.185Z,64.48
2023-05-18T09:36:40.278Z,65.16
2023-05-18T09:39:09.425Z,62.45
2023-05-18T09:41:39.292Z,63.00
2023-05-18T09:44:09.317Z,63.01
2023-05-18T09:46:37.694Z,62.46
2023-05-18T09:49:05.432Z,62.28
2023-05-18T09:51:36.255Z,61.52
2023-05-18T09:54:05.860Z,62.08
2023-05-18T09:56:35.870Z,62.14
2023-05-18T09:59:15.607Z,62.35
2023-05-18T10:01:55.172Z,63.44
2023-05-18T10:04:21.744Z,62.89
2023-05-18T10:06:49.511Z,62.00
2023-05-18T10:09:16.821Z,61.90
2023-05-18T10:11:44.094Z,62.44
2023-05-18T10:14:13.639Z,61.97
2023-05-18T10:16:41.481Z,60.15
2023-05-18T10:19:09.228Z,60.56
2023-05-18T10:21:36.784Z,59.81
2023-05-18T10:24:04.618Z,60.39
2023-05-18T10:26:32.993Z,60.85
2023-05-18T10:29:00.145Z,59.79
2023-05-18T10:31:27.731Z,60.36
2023-05-18T10:33:55.591Z,60.76
2023-05-18T10:36:22.373Z,60.82
2023-05-18T10:38:49.192Z,59.94
2023-05-18T10:41:18.770Z,58.10
2023-05-18T10:43:45.988Z,59.43
2023-05-18T10:46:13.936Z,59.65
2023-05-18T10:48:40.891Z,58.81
2023-05-18T10:51:07.972Z,59.01
2023-05-18T10:53:34.510Z,59.38
2023-05-18T10:56:01.742Z,59.39
2023-05-18T10:58:29.810Z,59.37
2023-05-18T11:00:58.358Z,59.01
2023-05-18T11:03:26.852Z,58.57
2023-05-18T11:06:08.901Z,57.40
2023-05-18T11:08:43.414Z,55.50
2023-05-18T11:11:09.881Z,54.85
2023-05-18T11:13:38.435Z,55.09
2023-05-18T11:16:06.663Z,55.81
2023-05-18T11:18:52.354Z,55.65
2023-05-18T11:21:19.566Z,56.46
2023-05-18T11:24:13.827Z,57.52
2023-05-18T11:26:40.946Z,56.59
2023-05-18T11:29:24.444Z,57.08
2023-05-18T11:31:51.935Z,56.30
2023-05-18T11:34:40.087Z,57.08
2023-05-18T11:37:09.861Z,56.80
2023-05-18T11:39:42.104Z,56.89
2023-05-18T11:42:18.515Z,55.73
2023-05-18T11:44:52.150Z,55.20
2023-05-18T11:47:18.732Z,55.40
2023-05-18T11:49:46.705Z,54.36
2023-05-18T11:52:19.490Z,53.39
2023-05-18T11:54:56.825Z,52.89
2023-05-18T11:57:35.506Z,53.93
2023-05-18T12:00:07.873Z,53.61
2023-05-18T12:02:34.891Z,53.13
2023-05-18T12:05:02.820Z,52.88
2023-05-18T12:07:34.257Z,54.07
2023-05-18T12:10:08.408Z,53.27
2023-05-18T12:12:35.163Z,51.48
2023-05-18T12:15:04.074Z,50.80
2023-05-18T12:17:49.795Z,50.53
2023-05-18T12:20:21.262Z,48.71
2023-05-18T12:22:53.000Z,46.84
2023-05-18T12:25:20.059Z,48.40
2023-05-18T12:27:48.059Z,49.53
2023-05-18T12:30:21.312Z,49.82
2023-05-18T12:32:51.246Z,49.59
2023-05-18T12:35:21.542Z,48.71
2023-05-18T12:37:48.045Z,47.47
2023-05-18T12:40:18.030Z,47.33
2023-05-18T12:42:56.607Z,46.74
2023-05-18T12:45:24.519Z,45.57
2023-05-18T12:47:54.372Z,44.61
2023-05-18T12:50:22.107Z,44.40
2023-05-18T12:52:48.785Z,43.89
2023-05-18T12:55:21.677Z,44.27
2023-05-18T12:58:04.488Z,45.02
2023-05-18T13:00:34.877Z,46.21
2023-05-18T13:03:14.650Z,45.74
2023-05-18T13:05:46.619Z,45.05
2023-05-18T13:08:18.971Z,44.60
2023-05-18T13:10:45.615Z,44.24
2023-05-18T13:13:15.365Z,42.41
2023-05-18T13:15:42.756Z,43.71
2023-05-18T13:18:13.005Z,44.51
2023-05-18T13:20:45.278Z,45.29
2023-05-18T13:23:13.897Z,44.44
2023-05-18T13:25:41.092Z,42.20
2023-05-18T13:28:09.172Z,41.54
2023-05-18T13:30:35.717Z,42.40
2023-05-18T13:33:02.379Z,42.85
2023-05-18T13:35:29.187Z,44.42
2023-05-18T13:37:55.772Z,44.46
2023-05-18T13:40:24.995Z,43.74
2023-05-18T13:42:51.997Z,44.05
2023-05-18T13:45:19.132Z,43.88
2023-05-18T13:47:47.723Z,43.60
2023-05-18T13:50:14.249Z,43.53
2023-05-18T13:52:40.750Z,44.37
2023-05-18T13:55:07.610Z,44.54
2023-05-18T13:57:34.297Z,44.17
2023-05-18T14:00:03.803Z,45.52
2023-05-18T14:02:30.299Z,45.03
2023-05-18T14:04:56.828Z,45.75
2023-05-18T14:07:24.238Z,46.47
2023-05-18T14:09:50.824Z,47.41
2023-05-18T14:12:17.264Z,46.39
2023-05-18T14:14:43.733Z,46.96
2023-05-18T14:17:11.409Z,46.58
2023-05-18T14:19:38.150Z,46.98
2023-05-18T14:22:04.740Z,45.53
2023-05-18T14:24:31.165Z,45.55
2023-05-18T14:26:57.701Z,45.74
2023-05-18T14:29:24.217Z,45.83
2023-05-18T14:31:50.969Z,45.97
2023-05-18T14:34:17.738Z,48.05
2023-05-18T14:36:44.181Z,48.89
2023-05-18T14:39:10.625Z,48.26
2023-05-18T14:41:37.048Z,48.18
2023-05-18T14:44:09.777Z,48.18
2023-05-18T14:46:36.737Z,49.18
2023-05-18T14:49:03.273Z,49.67
2023-05-18T14:51:29.687Z,49.16
2023-05-18T14:53:56.124Z,48.73
2023-05-18T14:56:22.714Z,48.82
2023-05-18T14:58:49.187Z,49.56
2023-05-18T15:01:15.639Z,50.37
2023-05-18T15:03:42.426Z,48.76
2023-05-18T15:06:09.186Z,48.85
2023-05-18T15:08:35.646Z,48.64
2023-05-18T15:11:02.074Z,49.02
2023-05-18T15:13:28.528Z,48.62
2023-05-18T15:15:55.042Z,48.26
2023-05-18T15:18:21.501Z,47.86
2023-05-18T15:20:48.404Z,46.16
2023-05-18T15:23:14.816Z,47.63
2023-05-18T15:25:41.435Z,48.58
2023-05-18T15:28:08.940Z,47.85
2023-05-18T15:30:35.427Z,49.76
2023-05-18T15:33:06.134Z,49.20
2023-05-18T15:35:34.730Z,49.25
2023-05-18T15:38:01.171Z,50.22
2023-05-18T15:40:27.689Z,49.39
2023-05-18T15:42:54.166Z,49.62
2023-05-18T15:45:20.765Z,50.41
2023-05-18T15:47:47.241Z,50.10
2023-05-18T15:50:13.750Z,49.07
2023-05-18T15:52:40.199Z,50.03
2023-05-18T15:55:07.071Z,49.83
2023-05-18T15:57:33.589Z,50.31
2023-05-18T16:00:00.190Z,49.96
2023-05-18T16:02:26.673Z,50.21
2023-05-18T16:04:53.121Z,49.92
2023-05-18T16:07:19.625Z,50.37
2023-05-18T16:09:47.920Z,51.32
2023-05-18T16:12:14.368Z,51.12
2023-05-18T16:14:40.833Z,51.08
2023-05-18T16:17:07.387Z,51.20
2023-05-18T16:19:34.016Z,51.16
2023-05-18T16:22:00.446Z,51.77
2023-05-18T16:24:26.867Z,51.99
2023-05-18T16:26:53.324Z,51.67
2023-05-18T16:29:19.738Z,50.36
2023-05-18T16:31:46.262Z,50.12
2023-05-18T16:34:12.710Z,51.52
2023-05-18T16:36:39.197Z,50.60
2023-05-18T16:39:07.696Z,50.56
2023-05-18T16:41:34.125Z,51.46
2023-05-18T16:44:00.569Z,51.63
2023-05-18T16:46:27.646Z,51.98
2023-05-18T16:48:54.086Z,51.51
2023-05-18T16:51:20.684Z,52.13
2023-05-18T16:53:47.101Z,52.92
2023-05-18T16:56:13.593Z,53.15
2023-05-18T16:58:40.019Z,53.22
2023-05-18T17:01:16.080Z,53.17
2023-05-18T17:03:53.073Z,52.95
2023-05-18T17:06:21.100Z,53.13
2023-05-18T17:08:47.546Z,53.72
2023-05-18T17:11:14.314Z,53.95
2023-05-18T17:13:40.756Z,53.80
2023-05-18T17:16:07.261Z,53.18
2023-05-18T17:18:33.725Z,53.43
2023-05-18T17:21:00.166Z,53.56
2023-05-18T17:23:26.765Z,53.27
2023-05-18T17:26:00.851Z,53.44
2023-05-18T17:28:32.104Z,54.01
2023-05-18T17:30:58.521Z,53.87
2023-05-18T17:33:24.932Z,54.14
2023-05-18T17:35:51.544Z,54.00
2023-05-18T17:38:18.102Z,54.14
2023-05-18T17:40:44.639Z,54.54
2023-05-18T17:43:11.172Z,54.36
2023-05-18T17:45:37.867Z,54.76
2023-05-18T17:48:04.618Z,53.65
2023-05-18T17:50:31.299Z,53.73
2023-05-18T17:52:58.307Z,53.19
2023-05-18T17:55:24.749Z,53.95
2023-05-18T17:57:51.530Z,54.67
2023-05-18T18:00:18.667Z,54.87
2023-05-18T18:02:45.157Z,54.03
2023-05-18T18:05:11.656Z,54.69
2023-05-18T18:07:39.085Z,54.70
2023-05-18T18:10:06.816Z,54.60
2023-05-18T18:12:33.260Z,54.58
2023-05-18T18:14:59.738Z,54.01
2023-05-18T18:17:26.243Z,54.12
2023-05-18T18:19:52.719Z,53.70
2023-05-18T18:22:19.248Z,54.32
2023-05-18T18:24:45.790Z,54.49
2023-05-18T18:27:12.219Z,54.55
2023-05-18T18:29:38.634Z,55.12
2023-05-18T18:32:05.403Z,55.81
2023-05-18T18:34:31.874Z,55.88
2023-05-18T18:36:58.920Z,55.90
2023-05-18T18:39:25.526Z,56.27
2023-05-18T18:41:51.973Z,56.40
2023-05-18T18:44:18.377Z,55.94
2023-05-18T18:46:45.242Z,56.47
2023-05-18T18:49:11.732Z,57.16
2023-05-18T18:51:38.181Z,56.83
2023-05-18T18:54:04.778Z,57.13
2023-05-18T18:56:31.506Z,57.51
2023-05-18T18:58:57.932Z,57.70
2023-05-18T19:01:24.477Z,58.13
2023-05-18T19:03:52.813Z,57.88
2023-05-18T19:06:20.172Z,58.38
2023-05-18T19:08:46.607Z,58.13
2023-05-18T19:11:13.039Z,58.70
2023-05-18T19:13:39.485Z,58.83
2023-05-18T19:16:06.541Z,59.14
2023-05-18T19:18:32.988Z,59.05
2023-05-18T19:21:01.166Z,59.15
2023-05-18T19:23:27.667Z,59.30
2023-05-18T19:25:54.905Z,60.16
2023-05-18T19:28:21.629Z,60.26
2023-05-18T19:30:48.159Z,60.68
2023-05-18T19:33:14.663Z,60.40
2023-05-18T19:35:41.381Z,60.17
2023-05-18T19:38:07.896Z,60.50
2023-05-18T19:40:34.381Z,60.84
2023-05-18T19:43:01.715Z,60.38
2023-05-18T19:45:28.237Z,60.93
2023-05-18T19:47:54.850Z,60.37
2023-05-18T19:50:21.404Z,60.57
2023-05-18T19:52:49.410Z,60.62
2023-05-18T19:55:16.450Z,61.01
2023-05-18T19:57:42.919Z,61.15
2023-05-18T20:00:11.013Z,61.63
2023-05-18T20:02:37.812Z,61.40
2023-05-18T20:05:06.720Z,61.58
2023-05-18T20:07:33.908Z,61.66
2023-05-18T20:10:00.349Z,62.26
2023-05-18T20:12:28.278Z,62.49
2023-05-18T20:14:54.792Z,62.23
2023-05-18T20:17:21.535Z,62.07
2023-05-18T20:19:50.641Z,62.49
2023-05-18T20:22:17.894Z,62.46
2023-05-18T20:24:44.725Z,62.49
2023-05-18T20:27:14.757Z,62.41
2023-05-18T20:29:41.438Z,62.05
2023-05-18T20:32:08.058Z,61.62
2023-05-18T20:34:34.889Z,61.41
2023-05-18T20:37:01.456Z,61.59
2023-05-18T20:39:28.968Z,61.78
2023-05-18T20:41:57.540Z,62.08
2023-05-18T20:44:24.917Z,61.91
2023-05-18T20:46:52.994Z,62.06
2023-05-18T20:49:22.402Z,62.27
2023-05-18T20:51:49.409Z,62.81
2023-05-18T20:54:17.765Z,62.58
2023-05-18T20:56:44.449Z,63.07
2023-05-18T20:59:12.510Z,63.17
2023-05-18T21:01:39.727Z,63.39
2023-05-18T21:04:06.660Z,63.18
2023-05-18T21:06:34.248Z,62.91
2023-05-18T21:09:01.357Z,63.16
2023-05-18T21:11:27.868Z,62.88
2023-05-18T21:13:54.282Z,62.97
2023-05-18T21:16:20.772Z,63.24
2023-05-18T21:18:47.394Z,62.99
2023-05-18T21:21:13.869Z,63.46
2023-05-18T21:23:40.304Z,63.72
2023-05-18T21:26:06.737Z,63.68
2023-05-18T21:28:33.188Z,63.95
2023-05-18T21:30:59.640Z,64.25
2023-05-18T21:33:26.224Z,64.96
2023-05-18T21:35:52.775Z,65.73
2023-05-18T21:38:19.228Z,65.71
2023-05-18T21:40:46.636Z,65.98
2023-05-18T21:43:13.292Z,65.96
2023-05-18T21:45:39.821Z,66.10
2023-05-18T21:48:06.556Z,66.15
2023-05-18T21:50:34.662Z,65.60
2023-05-18T21:53:03.001Z,65.88
2023-05-18T21:55:30.752Z,66.08
2023-05-18T21:57:57.195Z,66.39
2023-05-18T22:00:23.670Z,66.87
2023-05-18T22:02:50.178Z,66.65
2023-05-18T22:05:18.619Z,67.24
2023-05-18T22:07:45.330Z,67.18
2023-05-18T22:10:11.767Z,67.60
2023-05-18T22:12:40.302Z,67.95
2023-05-18T22:15:07.510Z,67.62
2023-05-18T22:17:34.315Z,67.99
2023-05-18T22:20:00.856Z,67.67
2023-05-18T22:22:30.619Z,67.58
2023-05-18T22:24:57.747Z,67.47
2023-05-18T22:27:24.188Z,67.73
2023-05-18T22:29:50.898Z,67.50
2023-05-18T22:32:17.875Z,67.66
2023-05-18T22:34:44.484Z,67.51
2023-05-18T22:37:10.894Z,68.45
2023-05-18T22:39:37.353Z,69.08
2023-05-18T22:42:03.879Z,69.92
2023-05-18T22:44:30.457Z,71.86
2023-05-18T22:46:57.071Z,72.44
2023-05-18T22:49:23.593Z,73.40
2023-05-18T22:51:50.021Z,74.61
2023-05-18T22:54:16.474Z,75.93
2023-05-18T22:56:42.897Z,76.85
2023-05-18T22:59:11.454Z,76.47
2023-05-18T23:01:38.235Z,77.64
2023-05-18T23:04:04.825Z,78.39
2023-05-18T23:06:31.642Z,78.55
2023-05-18T23:09:00.301Z,78.74
2023-05-18T23:11:28.355Z,78.80
2023-05-18T23:13:54.886Z,79.71
2023-05-18T23:16:22.490Z,79.17
2023-05-18T23:18:50.528Z,79.17
2023-05-18T23:21:17.155Z,78.83
2023-05-18T23:23:45.564Z,78.70
2023-05-18T23:26:12.560Z,78.56
2023-05-18T23:28:39.033Z,78.54
2023-05-18T23:31:05.535Z,78.93
2023-05-18T23:33:32.354Z,79.30
2023-05-18T23:36:02.370Z,79.09
2023-05-18T23:38:34.573Z,78.95
2023-05-18T23:41:04.639Z,79.80
2023-05-18T23:43:31.325Z,80.82
2023-05-18T23:45:59.620Z,82.54
2023-05-18T23:48:32.244Z,83.15
2023-05-18T23:51:01.653Z,82.99
2023-05-18T23:53:31.971Z,82.75
2023-05-18T23:55:59.439Z,82.18
2023-05-18T23:58:30.463Z,81.79
